Portada
METAR-TAF:

METAR-TAF

Aeroports :

Tahití, Polinèsia Francesa

latitud: 17-33S, longitud: 149-37W, altitud: 2 m

Observació

L'informe es va fer fa 18 minuts, a les 18:30 UTC
Vent 3 kt del Nord/Nord-Oest, variant entre Nord-Oest i Nord/Nord-Est
Temperatura 26°C
Humitat 70%
Pressió 1014 hPa
Visibilitat 10 km o més
Escasses núvols a una alçada de 2100 ft

METAR: NTAA 231830Z 34003KT 310V020 9999 FEW021 26/20 Q1014 WS ALL RWY NOSIG

Hora: 08:48 (18:48 UTC)

Pronòstic

L'informe es va fer fa 1 hora i 48 minuts, a les 17:00 UTC
Pronòstic vàlid del 23 a les 18 UTC al 24 a les 24 UTC
Vent 3 kt amb direcció variable
Visibilitat 10 km o més
Escasses núvols a una alçada de 2500 ft
Núvols disperses a una alçada de 5000 ft
Probabilitat 30% :
Temporalment
l' 23 a les 20 UTC al 24 a les 03 UTC
Vent 20 kt del Sud/Sud-Oest amb ràfegues de 30 kt

TAF: NTAA 231700Z 2318/2424 VRB03KT 9999 FEW025 SCT050 PROB30 TEMPO 2320/2403 21020G30KT

Observacions i pronòstics meteorològics de més de 4000 aeroports (METAR i TAF).

Les estacions disponibles són els punts grocs i vermells al mapa.

Posi el ratolí al punt desitjat per veure el nom de l'estació.

Feu clic per veure les observacions i els pronòstics meteorològics.

Per canviar el mapa: feu clic els botons verds amb una creu de color negre per apropar; al botó verd amb un guió per allunyar la imatge; o en les fletxes verdes per a mapes adjacents.


METAR-TAF: